Santa Clara de Buena Vista, Argentina
Current Conditions -  °F | °C
As of 8:00 AM on Sunday 21 Dec 2014 (Local Time) from SAAR Reporting Station
Light Rain Light Rain  
Wind Chill: 61°   Ceiling: 10000
Heat Index: 61°   Visibility: 6mi
Dew Point: 50°   Wind: 13mph
Humidity: 68%   Direction: 140°SE
Pressure: 29.8"   Gusts: NA
Location:  31.76°S, 61.32°W
Report Text: SAAR 211100Z 14011KT 9999 -RA SCT045 OVC100 16/10 Q1009
Loading
Personal Weather Stations






























Interactive Weather Map New forecast layout! Learn more

10-Day Weather Forecast

Advertisements
Track Severe Weather on mobile